Time;durP1;ratioP1;P1;durP2;ratioP2;P2;SDS_P1;SDS_P2;PMS_P1;PMS_P2;Temp;Humidity;BMP_temperature;BMP_pressure;BME280_temperature;BME280_humidity;BME280_pressure;Samples;Min_cycle;Max_cycle;Signal;HPM_P1;HPM_P2
2022/07/12 00:01:39;;;;;;;2.88;1.40;;;;;;;17.71;65.30;100818.72;5055615;28;20032;-59
2022/07/12 00:04:05;;;;;;;3.28;1.42;;;;;;;17.71;65.03;100815.16;5073474;28;20036;-59
2022/07/12 00:06:30;;;;;;;2.85;1.33;;;;;;;17.57;65.79;100822.91;5055760;28;20040;-59
2022/07/12 00:08:55;;;;;;;3.03;1.52;;;;;;;17.36;66.61;100811.41;5073577;28;20082;-60
2022/07/12 00:11:21;;;;;;;2.00;1.35;;;;;;;17.30;66.65;100817.84;5073418;28;20033;-60
2022/07/12 00:13:46;;;;;;;3.08;1.80;;;;;;;17.41;66.53;100820.03;5073382;28;20476;-59
2022/07/12 00:16:12;;;;;;;2.78;1.58;;;;;;;17.61;65.63;100816.53;5073454;28;20024;-59
2022/07/12 00:18:37;;;;;;;3.22;1.75;;;;;;;17.57;65.56;100815.78;5073299;28;20029;-59
2022/07/12 00:21:03;;;;;;;5.28;1.63;;;;;;;17.69;65.01;100817.03;5055383;28;20025;-59
2022/07/12 00:23:28;;;;;;;2.88;1.60;;;;;;;17.64;65.25;100814.59;5056242;28;20092;-59
2022/07/12 00:25:54;;;;;;;2.70;1.65;;;;;;;17.51;65.92;100824.00;5059233;28;20406;-60
2022/07/12 00:28:19;;;;;;;4.63;2.08;;;;;;;17.55;65.62;100816.78;5059125;28;20035;-59
2022/07/12 00:30:44;;;;;;;4.97;1.90;;;;;;;17.63;65.12;100817.31;5059940;28;20025;-59
2022/07/12 00:33:10;;;;;;;3.05;1.70;;;;;;;17.60;65.17;100810.34;5077110;28;20040;-59
2022/07/12 00:35:35;;;;;;;5.97;2.33;;;;;;;17.45;65.70;100819.84;5059234;28;20456;-59
2022/07/12 00:38:01;;;;;;;6.32;2.70;;;;;;;17.36;66.09;100812.28;5077165;28;20037;-60
2022/07/12 00:40:26;;;;;;;7.03;2.70;;;;;;;17.55;65.43;100811.47;5077061;28;20024;-60
2022/07/12 00:42:51;;;;;;;4.35;2.67;;;;;;;17.52;65.44;100811.63;5077051;28;20032;-59
2022/07/12 00:45:20;;;;;;;2.85;2.00;;;;;;;17.47;65.64;100819.75;5077253;28;20024;-59
2022/07/12 00:47:47;;;;;;;3.28;2.10;;;;;;;17.46;65.56;100824.22;5059124;28;20509;-59
2022/07/12 00:50:18;;;;;;;3.33;2.05;;;;;;;17.33;66.20;100812.41;5025988;28;20085;-59
2022/07/12 00:52:47;;;;;;;4.63;1.92;;;;;;;17.28;66.30;100814.41;5058897;28;20035;-59
2022/07/12 00:55:14;;;;;;;3.50;1.98;;;;;;;17.19;66.69;100814.75;5059140;28;20029;-59
2022/07/12 00:57:43;;;;;;;2.40;1.85;;;;;;;17.21;66.44;100813.78;5059296;28;20123;-59
2022/07/12 01:00:11;;;;;;;4.57;2.15;;;;;;;17.26;66.20;100815.38;5058855;28;20020;-59
2022/07/12 01:02:37;;;;;;;6.00;2.47;;;;;;;17.32;66.18;100828.41;5076815;28;20021;-59
2022/07/12 01:05:07;;;;;;;2.78;1.38;;;;;;;17.39;66.05;100821.88;5058764;28;20028;-59
2022/07/12 01:07:36;;;;;;;1.90;1.42;;;;;;;17.36;65.95;100814.94;5058625;28;20032;-60
2022/07/12 01:10:04;;;;;;;5.00;2.17;;;;;;;17.39;65.83;100816.56;5058453;28;20036;-59
2022/07/12 01:12:30;;;;;;;3.35;1.90;;;;;;;17.30;66.29;100823.16;5058564;28;20078;-59
2022/07/12 01:14:56;;;;;;;2.53;1.73;;;;;;;17.40;65.95;100820.97;5058531;28;20028;-59
2022/07/12 01:17:24;;;;;;;3.88;2.17;;;;;;;17.40;65.89;100823.63;5058469;28;20028;-59
2022/07/12 01:19:52;;;;;;;5.20;1.95;;;;;;;17.39;66.11;100825.41;5058578;28;20021;-59
2022/07/12 01:22:18;;;;;;;4.60;1.92;;;;;;;17.33;66.21;100833.66;5076274;28;20107;-59
2022/07/12 01:24:45;;;;;;;3.08;1.67;;;;;;;17.39;65.84;100828.06;5041757;28;20531;-59
2022/07/12 01:27:12;;;;;;;2.35;1.50;;;;;;;17.45;65.57;100821.63;5058606;28;20024;-59
2022/07/12 01:29:40;;;;;;;4.63;1.92;;;;;;;17.40;65.76;100826.28;5058538;28;20440;-59
2022/07/12 01:32:25;;;;;;;2.28;1.80;;;;;;;17.37;65.56;100829.06;5076220;28;20474;-59
2022/07/12 01:35:03;;;;;;;3.10;2.20;;;;;;;17.36;65.65;100814.94;5060348;28;20039;-59
2022/07/12 01:37:31;;;;;;;4.05;2.05;;;;;;;17.35;65.71;100826.47;5058643;28;20436;-59
2022/07/12 01:39:58;;;;;;;3.50;1.83;;;;;;;17.28;65.89;100819.72;5058070;28;20464;-59
2022/07/12 01:42:25;;;;;;;3.15;1.90;;;;;;;17.14;66.47;100822.06;5058187;28;20482;-59
2022/07/12 01:44:52;;;;;;;4.97;2.03;;;;;;;17.05;66.79;100822.47;5075986;28;20028;-59
2022/07/12 01:47:18;;;;;;;3.03;2.15;;;;;;;16.91;67.43;100815.91;5057912;28;20035;-59
2022/07/12 01:49:44;;;;;;;7.45;2.10;;;;;;;16.89;67.27;100811.63;5041532;28;20024;-59
2022/07/12 01:52:10;;;;;;;3.05;1.70;;;;;;;17.03;66.73;100805.72;5075826;28;20055;-59
2022/07/12 01:54:35;;;;;;;4.78;1.90;;;;;;;16.83;67.16;100804.75;5057791;28;20085;-59
2022/07/12 01:57:02;;;;;;;5.47;2.00;;;;;;;16.78;67.45;100801.44;5075747;28;20154;-59
2022/07/12 01:59:29;;;;;;;3.22;1.85;;;;;;;16.90;67.60;100808.03;5075625;28;20025;-59
2022/07/12 02:01:56;;;;;;;3.00;1.50;;;;;;;16.98;67.03;100812.09;5041023;28;20141;-60
2022/07/12 02:04:21;;;;;;;2.22;1.70;;;;;;;16.99;66.95;100813.84;5057625;28;20477;-59
2022/07/12 02:06:48;;;;;;;3.17;1.70;;;;;;;17.05;66.59;100818.00;5057527;28;20025;-59
2022/07/12 02:09:14;;;;;;;3.63;1.77;;;;;;;17.05;66.74;100811.84;5075476;28;20036;-59
2022/07/12 02:11:40;;;;;;;4.18;2.05;;;;;;;17.04;66.81;100820.75;5075454;28;20063;-59
2022/07/12 02:14:06;;;;;;;3.85;2.40;;;;;;;16.91;67.19;100809.75;5057272;28;20028;-60
2022/07/12 02:16:32;;;;;;;3.10;2.33;;;;;;;16.92;67.42;100815.00;5057312;28;20093;-59
2022/07/12 02:18:58;;;;;;;3.92;1.85;;;;;;;17.10;66.75;100807.19;5075144;28;20059;-59
2022/07/12 02:21:23;;;;;;;6.72;2.40;;;;;;;17.09;66.90;100800.16;5075349;28;20120;-59
2022/07/12 02:23:49;;;;;;;3.85;2.20;;;;;;;17.13;66.60;100796.47;5075188;28;20024;-59
2022/07/12 02:26:15;;;;;;;2.67;1.80;;;;;;;17.08;66.88;100793.13;5075255;28;20371;-59
2022/07/12 02:28:40;;;;;;;4.90;2.13;;;;;;;17.00;67.41;100798.78;5075195;28;20478;-59
2022/07/12 02:31:06;;;;;;;4.68;1.98;;;;;;;16.97;67.43;100802.41;5057195;28;20034;-59
2022/07/12 02:33:31;;;;;;;4.68;1.98;;;;;;;16.89;67.72;100796.53;5075249;28;20479;-59
2022/07/12 02:35:57;;;;;;;3.20;2.13;;;;;;;16.88;67.65;100793.97;5057402;28;20032;-59
2022/07/12 02:38:22;;;;;;;7.05;2.47;;;;;;;16.82;67.93;100795.06;5056963;28;20042;-59
2022/07/12 02:40:53;;;;;;;4.88;2.15;;;;;;;16.88;67.81;100800.13;5074581;28;20467;-59
2022/07/12 02:43:23;;;;;;;4.05;2.08;;;;;;;16.95;68.04;100806.03;5074856;28;20029;-59
2022/07/12 02:45:50;;;;;;;7.00;2.10;;;;;;;16.99;67.43;100792.59;5057306;28;20035;-59
2022/07/12 02:48:15;;;;;;;3.97;2.08;;;;;;;16.92;67.49;100795.56;5039297;28;20033;-59
2022/07/12 02:50:41;;;;;;;3.22;2.13;;;;;;;17.07;67.32;100799.34;5074690;28;20032;-59
2022/07/12 02:53:08;;;;;;;5.13;1.90;;;;;;;17.09;67.73;100787.75;5056717;28;20027;-59
2022/07/12 02:55:34;;;;;;;4.63;2.45;;;;;;;17.11;67.46;100780.56;5056808;28;20033;-59
2022/07/12 02:58:00;;;;;;;2.83;1.63;;;;;;;17.13;67.62;100792.00;5056276;28;20442;-58
2022/07/12 03:00:26;;;;;;;5.07;2.22;;;;;;;17.17;67.44;100787.44;5056594;28;20116;-59
2022/07/12 03:02:52;;;;;;;3.90;2.30;;;;;;;17.27;67.10;100786.09;5039959;28;20131;-59
2022/07/12 03:05:17;;;;;;;6.65;2.22;;;;;;;17.24;67.18;100791.56;5074457;28;20103;-59
2022/07/12 03:07:43;;;;;;;3.63;2.10;;;;;;;17.33;67.18;100791.16;5056306;28;20054;-59
2022/07/12 03:10:08;;;;;;;5.13;2.65;;;;;;;17.33;67.34;100791.16;5073999;28;20016;-59
2022/07/12 03:12:34;;;;;;;6.40;2.55;;;;;;;17.41;67.04;100788.16;5074268;28;20040;-59
2022/07/12 03:15:01;;;;;;;4.93;2.40;;;;;;;17.48;67.08;100786.97;5056063;28;20021;-59
2022/07/12 03:17:26;;;;;;;5.72;2.42;;;;;;;17.57;66.43;100788.38;5056562;28;20036;-60
2022/07/12 03:19:52;;;;;;;4.22;2.30;;;;;;;17.60;66.58;100788.22;5073907;28;20025;-59
2022/07/12 03:22:17;;;;;;;4.10;2.13;;;;;;;17.70;66.12;100779.75;5073869;28;20107;-59
2022/07/12 03:24:42;;;;;;;3.75;1.85;;;;;;;17.70;66.04;100782.41;5039287;28;20039;-59
2022/07/12 03:27:09;;;;;;;2.78;2.17;;;;;;;17.67;66.60;100779.03;5056023;28;20032;-59
2022/07/12 03:29:34;;;;;;;2.92;1.80;;;;;;;17.56;67.01;100774.22;5073649;28;20025;-59
2022/07/12 03:31:59;;;;;;;2.35;2.10;;;;;;;17.69;66.70;100775.38;5074179;28;20035;-59
2022/07/12 03:34:25;;;;;;;2.97;2.00;;;;;;;17.81;66.35;100776.66;5073683;28;20133;-59
2022/07/12 03:36:51;;;;;;;5.22;1.98;;;;;;;17.87;66.06;100781.72;5073999;28;20036;-59
2022/07/12 03:39:16;;;;;;;3.05;1.98;;;;;;;17.88;66.29;100783.44;5055973;28;20036;-59
2022/07/12 03:41:41;;;;;;;2.80;2.10;;;;;;;17.85;66.85;100788.88;5073636;28;20115;-59
2022/07/12 03:44:07;;;;;;;6.45;2.05;;;;;;;17.94;66.22;100787.59;5056404;28;20036;-59
2022/07/12 03:46:35;;;;;;;3.63;2.10;;;;;;;17.95;66.30;100784.00;5056387;28;20028;-59
2022/07/12 03:49:01;;;;;;;3.13;1.90;;;;;;;18.07;66.31;100787.88;5073594;28;20029;-59
2022/07/12 03:51:26;;;;;;;3.45;2.38;;;;;;;18.19;65.94;100785.56;5073683;28;20028;-59
2022/07/12 03:53:52;;;;;;;2.25;1.77;;;;;;;18.27;66.11;100789.63;5073577;28;20392;-59
2022/07/12 03:59:02;;;;;;;3.05;1.98;;;;;;;18.34;66.41;100786.59;5073707;28;20048;-59
2022/07/12 04:01:28;;;;;;;3.45;2.05;;;;;;;18.48;65.92;100780.63;5039002;28;20043;-59
2022/07/12 04:03:55;;;;;;;5.75;2.55;;;;;;;18.44;66.65;100779.91;5039164;28;20028;-59
2022/07/12 04:06:21;;;;;;;3.10;2.40;;;;;;;18.59;65.92;100782.75;5055513;28;20119;-59
2022/07/12 04:08:46;;;;;;;2.40;1.73;;;;;;;18.83;65.34;100772.75;5055601;28;20035;-60
2022/07/12 04:11:11;;;;;;;7.53;2.20;;;;;;;18.95;64.92;100770.34;5073500;28;20111;-59
2022/07/12 04:13:37;;;;;;;4.38;1.70;;;;;;;19.03;64.90;100769.09;5073244;28;20378;-57
2022/07/12 04:16:03;;;;;;;6.78;2.40;;;;;;;19.10;64.72;100768.69;5073508;28;20024;-59
2022/07/12 04:18:29;;;;;;;5.68;2.15;;;;;;;19.13;65.10;100771.22;5073396;28;20043;-59
2022/07/12 04:20:54;;;;;;;4.90;2.10;;;;;;;19.18;65.11;100774.50;5073231;28;20028;-59
2022/07/12 04:23:20;;;;;;;5.60;2.00;;;;;;;19.33;64.53;100775.50;5073257;28;20035;-60
2022/07/12 04:25:45;;;;;;;4.70;2.22;;;;;;;18.99;66.34;100764.84;5073137;28;20452;-58
2022/07/12 04:28:10;;;;;;;3.20;1.70;;;;;;;19.49;64.11;100762.25;5073200;28;20112;-59
2022/07/12 04:30:36;;;;;;;2.75;1.60;;;;;;;19.28;65.27;100763.38;5055445;28;20123;-59
2022/07/12 04:33:01;;;;;;;2.75;1.45;;;;;;;19.59;64.26;100759.94;5073227;28;20425;-59
2022/07/12 04:35:27;;;;;;;5.05;1.80;;;;;;;19.54;64.90;100759.34;5073169;28;20115;-59
2022/07/12 04:37:52;;;;;;;4.80;1.58;;;;;;;19.75;64.15;100763.59;5055315;28;20117;-59
2022/07/12 04:40:17;;;;;;;6.32;1.70;;;;;;;19.74;64.46;100755.66;5055104;28;20033;-59
2022/07/12 04:42:43;;;;;;;1.75;1.40;;;;;;;19.90;63.96;100764.53;5073156;28;20029;-60
2022/07/12 04:45:08;;;;;;;3.40;1.33;;;;;;;20.11;63.34;100755.38;5073479;28;20111;-59
2022/07/12 04:47:37;;;;;;;2.13;1.20;;;;;;;20.09;63.77;100757.25;5073182;28;20033;-59
2022/07/12 04:50:06;;;;;;;4.00;1.60;;;;;;;20.06;63.72;100751.22;5055212;28;20029;-59
2022/07/12 04:52:31;;;;;;;1.90;1.30;;;;;;;20.00;64.14;100762.25;5073158;28;20059;-59
2022/07/12 04:54:57;;;;;;;2.42;1.30;;;;;;;20.50;62.46;100746.09;5055082;28;20070;-59
2022/07/12 04:57:22;;;;;;;2.83;1.02;;;;;;;20.43;62.61;100750.91;5072685;28;20048;-59
2022/07/12 04:59:47;;;;;;;1.35;1.08;;;;;;;20.43;62.74;100750.91;5073276;28;20052;-59
2022/07/12 05:02:13;;;;;;;2.38;1.05;;;;;;;20.53;62.62;100745.06;5054993;28;20452;-59
2022/07/12 05:04:41;;;;;;;3.55;1.20;;;;;;;19.94;64.53;100747.41;5072865;28;20028;-56
2022/07/12 05:07:06;;;;;;;3.53;1.20;;;;;;;19.90;64.92;100749.41;5038653;28;20024;-52
2022/07/12 05:09:32;;;;;;;1.95;1.00;;;;;;;20.02;64.82;100749.66;5072715;28;20059;-54
2022/07/12 05:11:58;;;;;;;2.15;0.98;;;;;;;20.12;64.45;100753.56;5075883;28;20471;-55
2022/07/12 05:14:23;;;;;;;5.28;1.17;;;;;;;20.31;64.41;100750.75;5076497;28;20056;-55
2022/07/12 05:16:55;;;;;;;7.95;1.55;;;;;;;20.37;64.25;100751.25;5076511;28;20067;-52
2022/07/12 05:19:21;;;;;;;7.93;1.40;;;;;;;20.43;64.07;100753.56;5059272;28;20083;-52
2022/07/12 05:21:46;;;;;;;7.63;1.52;;;;;;;20.54;63.72;100752.13;5076142;28;20040;-53
2022/07/12 05:24:12;;;;;;;2.35;0.90;;;;;;;20.48;64.05;100747.13;5058221;28;20028;-52
2022/07/12 05:26:41;;;;;;;3.00;1.00;;;;;;;20.46;64.37;100762.34;5058323;28;20032;-54
2022/07/12 05:29:08;;;;;;;2.75;1.00;;;;;;;19.87;65.95;100778.91;5076286;28;20116;-53
2022/07/12 05:31:35;;;;;;;2.50;0.80;;;;;;;20.30;64.76;100757.00;5058398;28;20024;-51
2022/07/12 05:34:00;;;;;;;2.17;0.90;;;;;;;19.99;65.28;100771.16;5076130;28;20029;-55
2022/07/12 05:36:26;;;;;;;4.22;0.90;;;;;;;20.46;63.73;100744.50;5058280;28;20077;-51
2022/07/12 05:38:51;;;;;;;0.93;0.75;;;;;;;20.66;63.00;100752.25;5076069;28;20040;-53
2022/07/12 05:41:17;;;;;;;1.95;0.85;;;;;;;20.38;63.73;100758.28;5076288;28;20028;-55
2022/07/12 05:43:43;;;;;;;1.77;0.80;;;;;;;20.67;63.03;100755.81;5076046;28;20452;-52
2022/07/12 05:46:09;;;;;;;2.22;0.80;;;;;;;21.12;61.55;100748.72;5075809;28;20027;-54
2022/07/12 05:48:36;;;;;;;3.30;0.77;;;;;;;21.07;61.44;100746.34;5075891;28;20115;-53
2022/07/12 05:53:48;;;;;;;1.42;0.50;;;;;;;20.74;61.65;100759.84;5076005;28;20036;-53
2022/07/12 05:56:16;;;;;;;1.75;0.60;;;;;;;20.97;61.00;100755.81;5057490;28;20052;-52
2022/07/12 05:58:42;;;;;;;1.50;0.63;;;;;;;21.42;60.30;100751.38;5024751;28;20044;-53
2022/07/12 06:01:07;;;;;;;3.55;0.70;;;;;;;21.53;59.06;100748.06;5075598;28;20383;-51
2022/07/12 06:03:33;;;;;;;0.80;0.55;;;;;;;21.13;58.62;100753.09;5057703;28;20086;-53
2022/07/12 06:05:59;;;;;;;0.98;0.40;;;;;;;21.36;58.21;100746.41;5075604;28;20021;-53
2022/07/12 06:08:24;;;;;;;2.35;0.50;;;;;;;21.14;58.88;100757.50;5058161;28;20474;-49
2022/07/12 06:10:50;;;;;;;0.88;0.57;;;;;;;21.21;58.56;100753.50;5075678;28;20462;-51
2022/07/12 06:13:16;;;;;;;2.63;0.68;;;;;;;21.56;58.35;100754.06;5075341;28;20031;-48
2022/07/12 06:15:41;;;;;;;2.50;0.55;;;;;;;21.95;57.46;100746.34;5057383;28;20032;-54
2022/07/12 06:18:07;;;;;;;5.78;0.80;;;;;;;22.10;56.62;100743.56;5075252;28;20039;-53
2022/07/12 06:20:32;;;;;;;1.30;0.50;;;;;;;21.89;56.58;100745.75;5075278;28;20064;-51
2022/07/12 06:22:58;;;;;;;2.22;0.65;;;;;;;22.23;56.22;100748.16;5040594;28;20032;-52
2022/07/12 06:25:24;;;;;;;5.20;0.88;;;;;;;21.85;55.25;100749.56;5057389;28;20506;-50
2022/07/12 06:27:50;;;;;;;1.45;0.50;;;;;;;21.52;54.63;100759.72;5040345;28;20079;-52
2022/07/12 06:30:20;;;;;;;2.95;0.52;;;;;;;21.96;54.26;100753.41;5040648;28;20448;-52
2022/07/12 06:32:47;;;;;;;0.75;0.40;;;;;;;21.69;54.98;100748.81;5057078;28;20479;-53
2022/07/12 06:35:13;;;;;;;3.22;0.38;;;;;;;21.72;53.89;100743.28;5056965;28;20028;-47
2022/07/12 06:37:39;;;;;;;5.53;1.27;;;;;;;21.98;54.54;100746.13;5056909;28;20052;-53
2022/07/12 06:40:06;;;;;;;9.30;0.90;;;;;;;22.31;53.89;100745.84;5056934;28;20416;-51
2022/07/12 06:42:31;;;;;;;1.02;0.40;;;;;;;22.35;52.64;100752.72;5056846;28;20051;-52
2022/07/12 06:44:56;;;;;;;1.70;0.30;;;;;;;22.09;53.51;100754.34;5056862;28;20104;-53
2022/07/12 06:47:22;;;;;;;4.80;0.55;;;;;;;22.17;53.67;100756.56;5056640;28;20040;-53
2022/07/12 06:49:47;;;;;;;0.63;0.43;;;;;;;22.32;52.83;100748.41;5074353;28;20116;-51
2022/07/12 06:52:15;;;;;;;1.55;0.55;;;;;;;22.30;52.50;100758.38;5074571;28;20376;-53
2022/07/12 06:54:41;;;;;;;1.38;0.40;;;;;;;22.12;52.91;100768.38;5056409;28;20024;-51
2022/07/12 06:57:06;;;;;;;2.90;0.50;;;;;;;22.52;52.59;100754.28;5074494;28;20064;-53
2022/07/12 06:59:32;;;;;;;1.23;0.40;;;;;;;22.30;52.48;100758.38;5074385;28;20030;-54
2022/07/12 07:01:57;;;;;;;3.42;0.73;;;;;;;22.15;52.75;100755.81;5056250;28;20459;-54
2022/07/12 07:04:24;;;;;;;1.70;0.40;;;;;;;22.30;52.20;100765.50;5074223;28;20456;-52
2022/07/12 07:06:49;;;;;;;0.63;0.40;;;;;;;22.33;51.42;100765.31;5056866;28;20032;-55
2022/07/12 07:09:15;;;;;;;0.65;0.40;;;;;;;23.11;50.34;100757.50;5046943;28;20442;-53
2022/07/12 07:11:41;;;;;;;2.20;0.52;;;;;;;22.70;50.62;100760.22;5067242;28;20040;-56
2022/07/12 07:14:06;;;;;;;1.85;0.40;;;;;;;22.37;50.99;100762.34;5061410;28;20020;-53
2022/07/12 07:16:32;;;;;;;1.00;0.50;;;;;;;22.43;51.75;100770.94;5072637;28;20060;-55
2022/07/12 07:18:58;;;;;;;2.00;0.60;;;;;;;22.82;50.95;100762.09;5059896;28;20063;-55
2022/07/12 07:21:24;;;;;;;2.30;0.50;;;;;;;22.96;50.95;100767.44;5066366;28;20056;-55
2022/07/12 07:23:50;;;;;;;0.80;0.45;;;;;;;23.21;50.00;100773.81;5052745;28;20481;-53
2022/07/12 07:26:18;;;;;;;1.55;0.50;;;;;;;23.26;50.32;100772.53;5049564;28;20115;-56
2022/07/12 07:31:29;;;;;;;2.00;0.50;;;;;;;23.10;50.18;100785.28;5053686;28;20120;-54
2022/07/12 07:33:54;;;;;;;1.67;0.52;;;;;;;23.06;49.44;100781.06;5053136;28;20023;-56
2022/07/12 07:36:20;;;;;;;1.08;0.32;;;;;;;23.02;48.92;100784.91;5053790;28;20384;-56
2022/07/12 07:38:45;;;;;;;2.15;0.40;;;;;;;22.99;49.75;100769.06;5054021;28;20441;-56
2022/07/12 07:41:11;;;;;;;1.88;0.40;;;;;;;23.21;48.98;100761.25;5038034;28;20021;-55
2022/07/12 07:43:36;;;;;;;4.20;0.65;;;;;;;23.26;48.11;100772.53;5043949;28;20495;-49
2022/07/12 07:46:02;;;;;;;0.90;0.40;;;;;;;23.24;49.59;100763.72;5038043;28;20486;-55
2022/07/12 07:48:28;;;;;;;2.10;0.40;;;;;;;23.57;48.49;100759.69;5064212;28;20083;-53
2022/07/12 07:50:54;;;;;;;1.17;0.57;;;;;;;23.25;49.04;100775.31;5035807;28;20042;-51
2022/07/12 07:53:20;;;;;;;0.55;0.32;;;;;;;23.36;49.14;100759.34;5040153;28;20020;-51
2022/07/12 07:55:45;;;;;;;2.05;0.50;;;;;;;23.69;49.05;100764.22;5036067;28;20025;-49
2022/07/12 07:58:11;;;;;;;2.17;0.43;;;;;;;23.87;47.96;100762.06;5025668;28;20033;-56
2022/07/12 08:00:37;;;;;;;2.45;0.40;;;;;;;23.81;47.92;100768.72;5035156;28;20447;-51
2022/07/12 08:03:03;;;;;;;0.68;0.32;;;;;;;23.85;47.17;100774.72;5056906;28;20131;-54
2022/07/12 08:05:28;;;;;;;1.48;0.32;;;;;;;23.90;46.89;100772.59;5043932;28;20041;-55
2022/07/12 08:07:54;;;;;;;1.75;0.50;;;;;;;24.13;45.85;100765.53;5052727;28;20032;-54
2022/07/12 08:10:19;;;;;;;0.57;0.40;;;;;;;24.46;45.20;100778.41;5053271;28;20464;-53
2022/07/12 08:12:44;;;;;;;1.75;0.40;;;;;;;23.81;45.65;100767.84;5040053;28;20149;-54
2022/07/12 08:15:11;;;;;;;0.60;0.30;;;;;;;24.33;44.92;100772.16;5040223;28;20037;-54
2022/07/12 08:17:37;;;;;;;0.70;0.40;;;;;;;24.59;44.74;100764.91;5057096;28;20032;-51
2022/07/12 08:20:04;;;;;;;2.65;0.50;;;;;;;24.33;44.57;100761.41;5052373;28;20426;-56
2022/07/12 08:22:30;;;;;;;0.60;0.40;;;;;;;24.53;44.61;100760.84;5048856;28;20041;-57
2022/07/12 08:24:55;;;;;;;2.70;0.40;;;;;;;24.80;43.88;100768.66;5064105;28;20028;-55
2022/07/12 08:27:21;;;;;;;0.60;0.30;;;;;;;24.67;43.66;100762.50;5035003;28;20118;-54
2022/07/12 08:29:47;;;;;;;0.98;0.50;;;;;;;24.68;43.21;100766.91;5039995;28;20037;-56
2022/07/12 08:32:13;;;;;;;0.88;0.50;;;;;;;24.61;43.43;100754.91;5052926;28;20112;-54
2022/07/12 08:34:38;;;;;;;1.23;0.40;;;;;;;24.02;43.23;100765.50;5035184;28;20029;-53
2022/07/12 08:37:04;;;;;;;1.58;0.45;;;;;;;24.23;42.99;100761.25;5052885;28;20084;-56
2022/07/12 08:39:29;;;;;;;0.63;0.30;;;;;;;24.31;42.50;100761.53;5045534;28;20032;-55
2022/07/12 08:41:55;;;;;;;1.33;0.30;;;;;;;24.34;42.84;100755.09;5019069;28;20078;-54
2022/07/12 08:44:20;;;;;;;1.17;0.40;;;;;;;24.40;42.08;100753.81;5028162;28;20033;-49
2022/07/12 08:46:48;;;;;;;2.88;0.85;;;;;;;24.23;42.16;100758.56;5037528;28;20460;-56
2022/07/12 08:49:14;;;;;;;1.00;0.40;;;;;;;24.67;42.17;100754.44;5049222;28;20029;-49
2022/07/12 08:51:39;;;;;;;1.80;0.40;;;;;;;24.69;42.32;100757.84;5070256;28;20101;-52
2022/07/12 08:54:09;;;;;;;2.95;0.52;;;;;;;24.44;42.72;100755.28;5043366;28;20079;-53
2022/07/12 08:56:37;;;;;;;1.30;0.55;;;;;;;24.08;42.77;100773.06;5054845;28;20060;-51
2022/07/12 08:59:20;;;;;;;2.97;0.35;;;;;;;24.28;41.38;100759.06;5053377;28;20102;-52
2022/07/12 09:01:47;;;;;;;;;;;;;;;24.56;41.30;100746.31;5055082;28;20037;-51
2022/07/12 09:04:14;;;;;;;2.88;1.00;;;;;;;25.05;40.50;100737.25;5071644;28;19920;-52
2022/07/12 09:06:40;;;;;;;3.17;0.60;;;;;;;25.30;41.19;100739.81;5056554;28;20037;-56
2022/07/12 09:09:08;;;;;;;2.45;0.75;;;;;;;25.27;40.38;100748.09;5067154;28;20036;-53
2022/07/12 09:11:35;;;;;;;1.08;0.40;;;;;;;25.17;40.93;100755.16;5054963;28;20032;-54
2022/07/12 09:14:02;;;;;;;1.80;0.30;;;;;;;25.36;40.00;100753.75;5071360;28;20067;-52
2022/07/12 09:16:29;;;;;;;1.23;0.30;;;;;;;25.50;40.42;100740.09;5041248;28;20041;-52
2022/07/12 09:19:16;;;;;;;1.27;0.30;;;;;;;25.03;40.69;100747.28;5044673;28;20029;-49
2022/07/12 09:21:53;;;;;;;1.02;0.40;;;;;;;25.01;40.71;100757.25;5039750;28;20107;-55
2022/07/12 09:24:20;;;;;;;1.30;0.38;;;;;;;25.39;40.19;100737.38;5072544;28;20028;-52
2022/07/12 09:26:46;;;;;;;1.80;0.38;;;;;;;25.46;40.57;100733.22;5036198;28;20033;-52
2022/07/12 09:29:13;;;;;;;1.70;0.40;;;;;;;25.73;39.95;100736.44;5050539;28;20036;-52
2022/07/12 09:36:06;;;;;;;2.83;0.65;;;;;;;25.44;38.85;100740.53;5044066;28;20044;-51
2022/07/12 09:37:14;;;;;;;1.23;0.30;;;;;;;25.54;39.67;100736.16;5060735;28;20040;-49
2022/07/12 09:39:40;;;;;;;2.03;0.30;;;;;;;25.56;39.37;100729.66;5073011;28;20036;-51
2022/07/12 09:42:11;;;;;;;3.65;0.45;;;;;;;25.86;39.46;100732.78;5036937;28;20077;-50
2022/07/12 09:44:37;;;;;;;1.65;0.30;;;;;;;25.97;39.73;100735.44;5050065;28;20031;-56
2022/07/12 09:47:03;;;;;;;3.45;0.60;;;;;;;25.95;40.17;100726.66;5039566;28;20048;-53
2022/07/12 09:49:29;;;;;;;1.25;0.40;;;;;;;26.25;39.55;100732.25;5026374;28;20024;-53
2022/07/12 09:51:56;;;;;;;2.33;0.40;;;;;;;25.42;39.72;100715.63;5043378;28;20508;-52
2022/07/12 09:54:27;;;;;;;1.02;0.50;;;;;;;25.32;39.80;100726.22;5047741;28;20369;-56
2022/07/12 09:56:57;;;;;;;2.58;0.40;;;;;;;24.78;40.18;100727.63;5035225;28;20041;-56
2022/07/12 09:59:24;;;;;;;1.42;0.25;;;;;;;25.04;39.07;100724.78;5036841;28;20361;-51
2022/07/12 10:01:52;;;;;;;1.67;0.35;;;;;;;25.08;39.04;100740.56;5040474;28;20039;-51
2022/07/12 10:04:22;;;;;;;1.23;0.30;;;;;;;25.28;39.48;100714.84;5021331;28;20028;-49
2022/07/12 10:06:48;;;;;;;1.23;0.35;;;;;;;25.57;38.90;100722.44;5019799;28;20028;-51
2022/07/12 10:09:17;;;;;;;1.38;0.30;;;;;;;25.23;38.17;100725.13;5032891;28;20496;-52
2022/07/12 10:11:46;;;;;;;3.05;0.30;;;;;;;25.31;38.77;100716.44;5031029;28;20549;-53
2022/07/12 10:14:12;;;;;;;2.88;0.35;;;;;;;25.60;39.20;100714.16;5043683;28;20020;-53
2022/07/12 10:16:42;;;;;;;1.73;0.32;;;;;;;26.17;38.73;100712.28;5021871;28;20029;-52
2022/07/12 10:19:24;;;;;;;0.60;0.38;;;;;;;25.01;38.80;100738.44;5037633;28;20082;-50
2022/07/12 10:21:52;;;;;;;1.15;0.30;;;;;;;25.70;38.40;100719.66;5040034;28;20039;-53
2022/07/12 10:24:32;;;;;;;1.40;0.38;;;;;;;25.28;38.90;100720.22;5057380;28;20060;-48
2022/07/12 10:27:13;;;;;;;1.90;0.32;;;;;;;25.12;39.38;100725.09;5081143;28;20115;-50
2022/07/12 10:29:43;;;;;;;0.60;0.28;;;;;;;25.77;38.31;100716.41;5042204;28;20407;-52
2022/07/12 10:32:27;;;;;;;0.80;0.20;;;;;;;26.51;36.28;100727.44;5036710;28;20048;-53
2022/07/12 10:35:05;;;;;;;3.03;0.20;;;;;;;25.76;37.37;100727.25;5049006;28;20444;-51
2022/07/12 10:37:33;;;;;;;0.52;0.20;;;;;;;25.72;37.45;100726.63;5049677;28;20024;-54
2022/07/12 10:40:19;;;;;;;3.33;0.32;;;;;;;25.57;36.99;100749.34;5071176;28;20053;-53
2022/07/12 10:43:00;;;;;;;2.00;0.50;;;;;;;26.00;37.14;100721.75;5042479;28;20028;-50
2022/07/12 10:45:33;;;;;;;0.38;0.20;;;;;;;26.02;37.57;100715.28;5070217;28;20033;-50
2022/07/12 10:48:22;;;;;;;1.20;0.32;;;;;;;26.10;37.06;100714.66;5081699;28;20023;-53
2022/07/12 10:51:00;;;;;;;0.82;0.40;;;;;;;25.98;37.58;100704.88;5094244;28;20024;-53
2022/07/12 10:53:34;;;;;;;0.85;0.30;;;;;;;25.77;36.98;100710.09;5047609;28;20032;-53
2022/07/12 10:56:14;;;;;;;2.22;0.30;;;;;;;25.83;36.86;100746.50;5036875;28;20025;-54
2022/07/12 10:58:50;;;;;;;1.63;0.30;;;;;;;25.98;37.26;100719.19;5039568;28;20025;-55
2022/07/12 11:01:21;;;;;;;0.28;0.20;;;;;;;26.25;36.99;100732.25;5057929;28;20033;-52
2022/07/12 11:03:51;;;;;;;0.70;0.30;;;;;;;26.07;37.37;100703.28;5039976;28;20033;-57
2022/07/12 11:06:22;;;;;;;0.43;0.30;;;;;;;26.51;36.24;100710.41;5052407;28;20119;-56
2022/07/12 11:08:54;;;;;;;0.80;0.40;;;;;;;25.91;35.16;100726.03;5052371;28;20029;-57
2022/07/12 11:11:21;;;;;;;0.75;0.40;;;;;;;26.20;35.61;100696.75;5063493;28;20035;-58
2022/07/12 11:13:47;;;;;;;2.08;0.40;;;;;;;26.21;35.69;100716.44;5047687;28;20444;-58
2022/07/12 11:16:13;;;;;;;2.28;0.30;;;;;;;26.47;35.82;100717.88;5045324;28;20064;-55
2022/07/12 11:18:39;;;;;;;1.45;0.40;;;;;;;26.26;35.59;100712.41;5054499;28;20064;-58
2022/07/12 11:21:05;;;;;;;3.45;0.60;;;;;;;26.50;35.63;100709.56;5019231;28;20048;-58
2022/07/12 11:23:31;;;;;;;0.80;0.40;;;;;;;26.02;35.59;100731.44;5042869;28;20029;-57
2022/07/12 11:25:58;;;;;;;1.73;0.30;;;;;;;26.36;35.32;100719.72;5063959;28;20024;-58
2022/07/12 11:28:24;;;;;;;0.88;0.30;;;;;;;26.38;35.43;100699.78;5047309;28;20025;-59
2022/07/12 11:30:51;;;;;;;0.80;0.38;;;;;;;26.16;35.05;100691.75;5037997;28;20028;-58
2022/07/12 11:33:25;;;;;;;2.03;0.30;;;;;;;26.11;34.66;100693.97;5058706;28;20032;-58
2022/07/12 11:35:51;;;;;;;0.90;0.25;;;;;;;26.41;35.19;100695.94;5046068;28;20036;-58